KRCR

Fulton County Airport

Rochester, Indiana, USA
METAR KRCR 182315Z AUTO 33007KT 10SM SCT037 SCT044 SCT055 27/20 A2995 RMK AO2
Observed Flight Rules
Aug-18 @ 23:15 UTC (31 minutes ago) Visual Flight Rules
Wind Visibility Clouds
330° at 7 knots 10 miles
  • Scattered at 3,700' AGL
  • Scattered at 4,400' AGL
  • Scattered at 5,500' AGL
Temperatures Readings
Current 27°C / 81°F
Dewpoint 20°C / 68°F
Humidity 66%
Altimeter 29.95" Hg
Pressure 1014 hPa
Elevation 241
METAR KRCR 182315Z AUTO 33007KT 10SM SCT037 SCT044 SCT055 27/20 A2995 RMK AO2
Observed Flight Rules
Aug-18 @ 23:15 UTC
(31 minutes ago)
VFR
Wind Visibility
330° at 7 knots 10 miles
Clouds
  • Scattered at 3,700' AGL
  • Scattered at 4,400' AGL
  • Scattered at 5,500' AGL
Temperature Dewpoint
27°C / 81°F 20°C / 68°F
Humidity Altimeter Pressure
66% 29.95" Hg 1014 hPa